sensor_id;sensor_type;location;lat;lon;timestamp;P1;durP1;ratioP1;P2;durP2;ratioP2
28022;SDS011;67403;50.104;8.758;2023-08-31T00:01:31;4.43;;;2.67;;
28022;SDS011;67403;50.104;8.758;2023-08-31T00:03:59;5.03;;;2.78;;
28022;SDS011;67403;50.104;8.758;2023-08-31T00:06:26;5.38;;;3.13;;
28022;SDS011;67403;50.104;8.758;2023-08-31T00:08:53;4.22;;;3.53;;
28022;SDS011;67403;50.104;8.758;2023-08-31T00:11:21;5.57;;;2.80;;
28022;SDS011;67403;50.104;8.758;2023-08-31T00:13:48;6.35;;;3.08;;
28022;SDS011;67403;50.104;8.758;2023-08-31T00:16:17;4.22;;;3.00;;
28022;SDS011;67403;50.104;8.758;2023-08-31T00:18:44;4.32;;;3.20;;
28022;SDS011;67403;50.104;8.758;2023-08-31T00:21:11;4.15;;;3.10;;
28022;SDS011;67403;50.104;8.758;2023-08-31T00:23:39;5.40;;;3.58;;
28022;SDS011;67403;50.104;8.758;2023-08-31T00:26:06;5.53;;;2.92;;
28022;SDS011;67403;50.104;8.758;2023-08-31T00:28:34;5.97;;;3.40;;
28022;SDS011;67403;50.104;8.758;2023-08-31T00:31:02;5.05;;;2.85;;
28022;SDS011;67403;50.104;8.758;2023-08-31T00:33:31;5.43;;;3.40;;
28022;SDS011;67403;50.104;8.758;2023-08-31T00:35:58;3.63;;;2.85;;
28022;SDS011;67403;50.104;8.758;2023-08-31T00:38:28;5.20;;;3.53;;
28022;SDS011;67403;50.104;8.758;2023-08-31T00:40:56;4.82;;;3.13;;
28022;SDS011;67403;50.104;8.758;2023-08-31T00:43:23;6.35;;;3.70;;
28022;SDS011;67403;50.104;8.758;2023-08-31T00:45:51;9.18;;;3.38;;
28022;SDS011;67403;50.104;8.758;2023-08-31T00:48:19;4.60;;;3.35;;
28022;SDS011;67403;50.104;8.758;2023-08-31T00:50:48;5.03;;;3.38;;
28022;SDS011;67403;50.104;8.758;2023-08-31T00:53:16;4.28;;;3.20;;
28022;SDS011;67403;50.104;8.758;2023-08-31T00:55:44;5.93;;;3.38;;
28022;SDS011;67403;50.104;8.758;2023-08-31T00:58:11;4.40;;;3.22;;
28022;SDS011;67403;50.104;8.758;2023-08-31T01:00:40;5.97;;;3.03;;
28022;SDS011;67403;50.104;8.758;2023-08-31T01:03:12;6.32;;;3.55;;
28022;SDS011;67403;50.104;8.758;2023-08-31T01:05:54;6.15;;;3.97;;
28022;SDS011;67403;50.104;8.758;2023-08-31T01:08:29;7.70;;;3.50;;
28022;SDS011;67403;50.104;8.758;2023-08-31T01:11:02;5.88;;;3.72;;
28022;SDS011;67403;50.104;8.758;2023-08-31T01:13:34;6.50;;;4.00;;
28022;SDS011;67403;50.104;8.758;2023-08-31T01:16:05;7.00;;;3.75;;
28022;SDS011;67403;50.104;8.758;2023-08-31T01:18:34;8.63;;;4.00;;
28022;SDS011;67403;50.104;8.758;2023-08-31T01:21:06;5.05;;;4.00;;
28022;SDS011;67403;50.104;8.758;2023-08-31T01:23:54;11.05;;;4.20;;
28022;SDS011;67403;50.104;8.758;2023-08-31T01:26:23;6.75;;;4.03;;
28022;SDS011;67403;50.104;8.758;2023-08-31T01:28:51;8.75;;;4.65;;
28022;SDS011;67403;50.104;8.758;2023-08-31T01:31:18;6.70;;;4.53;;
28022;SDS011;67403;50.104;8.758;2023-08-31T01:33:46;5.82;;;4.35;;
28022;SDS011;67403;50.104;8.758;2023-08-31T01:36:17;9.05;;;4.85;;
28022;SDS011;67403;50.104;8.758;2023-08-31T01:38:47;8.93;;;3.92;;
28022;SDS011;67403;50.104;8.758;2023-08-31T01:41:17;6.10;;;4.20;;
28022;SDS011;67403;50.104;8.758;2023-08-31T01:43:46;8.20;;;4.43;;
28022;SDS011;67403;50.104;8.758;2023-08-31T01:46:15;6.65;;;4.43;;
28022;SDS011;67403;50.104;8.758;2023-08-31T01:48:42;7.82;;;4.45;;
28022;SDS011;67403;50.104;8.758;2023-08-31T01:51:10;6.82;;;4.72;;
28022;SDS011;67403;50.104;8.758;2023-08-31T01:53:37;8.15;;;4.22;;
28022;SDS011;67403;50.104;8.758;2023-08-31T01:56:05;5.95;;;4.10;;
28022;SDS011;67403;50.104;8.758;2023-08-31T01:58:33;6.55;;;3.95;;
28022;SDS011;67403;50.104;8.758;2023-08-31T02:01:01;7.85;;;5.15;;
28022;SDS011;67403;50.104;8.758;2023-08-31T02:03:28;7.07;;;4.60;;
28022;SDS011;67403;50.104;8.758;2023-08-31T02:05:55;13.15;;;5.47;;
28022;SDS011;67403;50.104;8.758;2023-08-31T02:08:23;5.97;;;4.28;;
28022;SDS011;67403;50.104;8.758;2023-08-31T02:10:50;7.78;;;4.72;;
28022;SDS011;67403;50.104;8.758;2023-08-31T02:13:19;9.25;;;4.43;;
28022;SDS011;67403;50.104;8.758;2023-08-31T02:15:50;10.25;;;4.63;;
28022;SDS011;67403;50.104;8.758;2023-08-31T02:18:18;9.88;;;4.20;;
28022;SDS011;67403;50.104;8.758;2023-08-31T02:20:45;7.50;;;4.70;;
28022;SDS011;67403;50.104;8.758;2023-08-31T02:23:13;8.93;;;4.32;;
28022;SDS011;67403;50.104;8.758;2023-08-31T02:25:40;8.27;;;4.13;;
28022;SDS011;67403;50.104;8.758;2023-08-31T02:28:07;7.35;;;4.07;;
28022;SDS011;67403;50.104;8.758;2023-08-31T02:30:34;11.73;;;4.78;;
28022;SDS011;67403;50.104;8.758;2023-08-31T02:33:03;11.63;;;4.80;;
28022;SDS011;67403;50.104;8.758;2023-08-31T02:35:31;12.73;;;4.57;;
28022;SDS011;67403;50.104;8.758;2023-08-31T02:37:58;5.68;;;4.32;;
28022;SDS011;67403;50.104;8.758;2023-08-31T02:40:25;6.35;;;4.90;;
28022;SDS011;67403;50.104;8.758;2023-08-31T02:42:52;13.00;;;4.80;;
28022;SDS011;67403;50.104;8.758;2023-08-31T02:45:20;6.05;;;4.47;;
28022;SDS011;67403;50.104;8.758;2023-08-31T02:47:48;9.98;;;4.80;;
28022;SDS011;67403;50.104;8.758;2023-08-31T02:50:17;8.93;;;5.35;;
28022;SDS011;67403;50.104;8.758;2023-08-31T02:52:44;6.38;;;4.43;;
28022;SDS011;67403;50.104;8.758;2023-08-31T02:55:11;5.78;;;4.43;;
28022;SDS011;67403;50.104;8.758;2023-08-31T02:57:39;8.98;;;5.00;;
28022;SDS011;67403;50.104;8.758;2023-08-31T03:00:06;7.35;;;4.68;;
28022;SDS011;67403;50.104;8.758;2023-08-31T03:02:38;6.80;;;5.13;;
28022;SDS011;67403;50.104;8.758;2023-08-31T03:05:05;8.05;;;4.82;;
28022;SDS011;67403;50.104;8.758;2023-08-31T03:07:34;6.70;;;4.20;;
28022;SDS011;67403;50.104;8.758;2023-08-31T03:10:02;8.07;;;4.78;;
28022;SDS011;67403;50.104;8.758;2023-08-31T03:12:29;8.80;;;4.60;;
28022;SDS011;67403;50.104;8.758;2023-08-31T03:14:57;7.18;;;4.40;;
28022;SDS011;67403;50.104;8.758;2023-08-31T03:17:24;10.20;;;4.75;;
28022;SDS011;67403;50.104;8.758;2023-08-31T03:19:51;6.80;;;4.53;;
28022;SDS011;67403;50.104;8.758;2023-08-31T03:22:19;6.43;;;4.45;;
28022;SDS011;67403;50.104;8.758;2023-08-31T03:24:47;7.72;;;5.28;;
28022;SDS011;67403;50.104;8.758;2023-08-31T03:27:15;5.90;;;4.47;;
28022;SDS011;67403;50.104;8.758;2023-08-31T03:29:42;8.15;;;4.97;;
28022;SDS011;67403;50.104;8.758;2023-08-31T03:32:09;10.13;;;5.00;;
28022;SDS011;67403;50.104;8.758;2023-08-31T03:34:37;8.52;;;5.13;;
28022;SDS011;67403;50.104;8.758;2023-08-31T03:37:04;14.60;;;5.68;;
28022;SDS011;67403;50.104;8.758;2023-08-31T03:39:31;6.47;;;4.88;;
28022;SDS011;67403;50.104;8.758;2023-08-31T03:42:01;11.45;;;5.20;;
28022;SDS011;67403;50.104;8.758;2023-08-31T03:44:28;7.45;;;4.68;;
28022;SDS011;67403;50.104;8.758;2023-08-31T03:46:55;10.77;;;5.22;;
28022;SDS011;67403;50.104;8.758;2023-08-31T03:49:23;9.73;;;5.35;;
28022;SDS011;67403;50.104;8.758;2023-08-31T03:51:50;9.15;;;4.70;;
28022;SDS011;67403;50.104;8.758;2023-08-31T03:54:18;7.15;;;5.15;;
28022;SDS011;67403;50.104;8.758;2023-08-31T03:56:46;8.57;;;5.45;;
28022;SDS011;67403;50.104;8.758;2023-08-31T03:59:14;8.80;;;5.25;;
28022;SDS011;67403;50.104;8.758;2023-08-31T04:01:42;7.07;;;5.25;;
28022;SDS011;67403;50.104;8.758;2023-08-31T04:04:09;10.43;;;5.88;;
28022;SDS011;67403;50.104;8.758;2023-08-31T04:06:37;12.45;;;5.63;;
28022;SDS011;67403;50.104;8.758;2023-08-31T04:09:04;8.02;;;5.47;;
28022;SDS011;67403;50.104;8.758;2023-08-31T04:11:32;10.98;;;5.35;;
28022;SDS011;67403;50.104;8.758;2023-08-31T04:13:59;5.68;;;4.32;;
28022;SDS011;67403;50.104;8.758;2023-08-31T04:16:28;9.57;;;5.72;;
28022;SDS011;67403;50.104;8.758;2023-08-31T04:18:55;9.95;;;5.63;;
28022;SDS011;67403;50.104;8.758;2023-08-31T04:21:22;8.05;;;5.47;;
28022;SDS011;67403;50.104;8.758;2023-08-31T04:23:50;10.48;;;5.75;;
28022;SDS011;67403;50.104;8.758;2023-08-31T04:26:17;8.73;;;5.53;;
28022;SDS011;67403;50.104;8.758;2023-08-31T04:28:45;7.38;;;5.32;;
28022;SDS011;67403;50.104;8.758;2023-08-31T04:31:13;9.18;;;5.65;;
28022;SDS011;67403;50.104;8.758;2023-08-31T04:33:41;7.68;;;5.38;;
28022;SDS011;67403;50.104;8.758;2023-08-31T04:36:09;9.52;;;6.22;;
28022;SDS011;67403;50.104;8.758;2023-08-31T04:38:37;14.38;;;6.88;;
28022;SDS011;67403;50.104;8.758;2023-08-31T04:41:04;9.68;;;5.63;;
28022;SDS011;67403;50.104;8.758;2023-08-31T04:43:31;13.13;;;6.90;;
28022;SDS011;67403;50.104;8.758;2023-08-31T04:45:59;11.02;;;6.20;;
28022;SDS011;67403;50.104;8.758;2023-08-31T04:48:28;10.43;;;5.83;;
28022;SDS011;67403;50.104;8.758;2023-08-31T04:50:57;9.18;;;6.07;;
28022;SDS011;67403;50.104;8.758;2023-08-31T04:53:24;9.85;;;5.75;;
28022;SDS011;67403;50.104;8.758;2023-08-31T04:55:52;9.98;;;5.82;;
28022;SDS011;67403;50.104;8.758;2023-08-31T04:58:19;9.13;;;6.35;;
28022;SDS011;67403;50.104;8.758;2023-08-31T05:00:46;10.10;;;6.18;;
28022;SDS011;67403;50.104;8.758;2023-08-31T05:03:14;10.35;;;6.57;;
28022;SDS011;67403;50.104;8.758;2023-08-31T05:05:41;9.88;;;6.15;;
28022;SDS011;67403;50.104;8.758;2023-08-31T05:08:10;9.95;;;5.90;;
28022;SDS011;67403;50.104;8.758;2023-08-31T05:10:38;12.43;;;6.85;;
28022;SDS011;67403;50.104;8.758;2023-08-31T05:13:05;12.45;;;7.45;;
28022;SDS011;67403;50.104;8.758;2023-08-31T05:15:32;14.05;;;7.20;;
28022;SDS011;67403;50.104;8.758;2023-08-31T05:18:00;14.20;;;7.47;;
28022;SDS011;67403;50.104;8.758;2023-08-31T05:20:28;11.68;;;7.38;;
28022;SDS011;67403;50.104;8.758;2023-08-31T05:22:56;14.82;;;7.82;;
28022;SDS011;67403;50.104;8.758;2023-08-31T05:25:24;12.52;;;7.28;;
28022;SDS011;67403;50.104;8.758;2023-08-31T05:27:52;10.30;;;6.70;;
28022;SDS011;67403;50.104;8.758;2023-08-31T05:30:20;11.80;;;7.97;;
28022;SDS011;67403;50.104;8.758;2023-08-31T05:32:47;12.18;;;7.32;;
28022;SDS011;67403;50.104;8.758;2023-08-31T05:35:15;14.88;;;8.10;;
28022;SDS011;67403;50.104;8.758;2023-08-31T05:37:42;14.32;;;7.97;;
28022;SDS011;67403;50.104;8.758;2023-08-31T05:40:10;13.35;;;7.88;;
28022;SDS011;67403;50.104;8.758;2023-08-31T05:42:40;16.45;;;8.70;;
28022;SDS011;67403;50.104;8.758;2023-08-31T05:45:08;10.93;;;6.82;;
28022;SDS011;67403;50.104;8.758;2023-08-31T05:47:35;19.70;;;8.32;;
28022;SDS011;67403;50.104;8.758;2023-08-31T05:50:04;15.23;;;8.50;;
28022;SDS011;67403;50.104;8.758;2023-08-31T05:52:31;15.65;;;8.70;;
28022;SDS011;67403;50.104;8.758;2023-08-31T05:54:58;17.52;;;9.60;;
28022;SDS011;67403;50.104;8.758;2023-08-31T05:57:26;17.08;;;9.70;;
28022;SDS011;67403;50.104;8.758;2023-08-31T05:59:55;15.82;;;9.48;;
28022;SDS011;67403;50.104;8.758;2023-08-31T06:02:22;19.50;;;9.90;;
28022;SDS011;67403;50.104;8.758;2023-08-31T06:04:50;16.27;;;9.38;;
28022;SDS011;67403;50.104;8.758;2023-08-31T06:07:17;14.05;;;9.32;;
28022;SDS011;67403;50.104;8.758;2023-08-31T06:09:45;16.48;;;9.40;;
28022;SDS011;67403;50.104;8.758;2023-08-31T06:12:12;15.35;;;9.50;;
28022;SDS011;67403;50.104;8.758;2023-08-31T06:14:39;11.85;;;7.35;;
28022;SDS011;67403;50.104;8.758;2023-08-31T06:17:08;10.43;;;7.78;;
28022;SDS011;67403;50.104;8.758;2023-08-31T06:19:38;15.32;;;8.38;;
28022;SDS011;67403;50.104;8.758;2023-08-31T06:22:05;13.80;;;7.88;;
28022;SDS011;67403;50.104;8.758;2023-08-31T06:24:33;13.15;;;8.15;;
28022;SDS011;67403;50.104;8.758;2023-08-31T06:27:02;12.63;;;7.50;;
28022;SDS011;67403;50.104;8.758;2023-08-31T06:29:29;15.38;;;8.88;;
28022;SDS011;67403;50.104;8.758;2023-08-31T06:31:57;14.88;;;7.63;;
28022;SDS011;67403;50.104;8.758;2023-08-31T06:34:25;15.60;;;8.30;;
28022;SDS011;67403;50.104;8.758;2023-08-31T06:36:52;13.68;;;6.90;;
28022;SDS011;67403;50.104;8.758;2023-08-31T06:39:20;10.07;;;6.30;;
28022;SDS011;67403;50.104;8.758;2023-08-31T06:41:47;11.75;;;6.90;;
28022;SDS011;67403;50.104;8.758;2023-08-31T06:44:14;11.38;;;6.43;;
28022;SDS011;67403;50.104;8.758;2023-08-31T06:46:42;10.88;;;6.03;;
28022;SDS011;67403;50.104;8.758;2023-08-31T06:49:09;12.32;;;6.78;;
28022;SDS011;67403;50.104;8.758;2023-08-31T06:51:38;9.15;;;6.25;;
28022;SDS011;67403;50.104;8.758;2023-08-31T06:54:05;11.90;;;5.90;;
28022;SDS011;67403;50.104;8.758;2023-08-31T06:56:33;10.30;;;5.35;;
28022;SDS011;67403;50.104;8.758;2023-08-31T06:59:00;9.05;;;5.55;;
28022;SDS011;67403;50.104;8.758;2023-08-31T07:01:27;9.80;;;5.55;;
28022;SDS011;67403;50.104;8.758;2023-08-31T07:03:55;9.07;;;5.35;;
28022;SDS011;67403;50.104;8.758;2023-08-31T07:06:22;6.65;;;5.10;;
28022;SDS011;67403;50.104;8.758;2023-08-31T07:08:51;7.10;;;4.95;;
28022;SDS011;67403;50.104;8.758;2023-08-31T07:11:18;8.07;;;5.53;;
28022;SDS011;67403;50.104;8.758;2023-08-31T07:13:46;10.07;;;4.57;;
28022;SDS011;67403;50.104;8.758;2023-08-31T07:16:13;6.70;;;4.90;;
28022;SDS011;67403;50.104;8.758;2023-08-31T07:18:40;10.30;;;5.28;;
28022;SDS011;67403;50.104;8.758;2023-08-31T07:21:08;11.75;;;4.68;;
28022;SDS011;67403;50.104;8.758;2023-08-31T07:23:35;7.75;;;4.68;;
28022;SDS011;67403;50.104;8.758;2023-08-31T07:26:04;10.45;;;4.93;;
28022;SDS011;67403;50.104;8.758;2023-08-31T07:28:31;8.15;;;4.43;;
28022;SDS011;67403;50.104;8.758;2023-08-31T07:31:02;7.55;;;3.88;;
28022;SDS011;67403;50.104;8.758;2023-08-31T07:33:30;7.00;;;4.75;;
28022;SDS011;67403;50.104;8.758;2023-08-31T07:35:58;9.48;;;3.75;;
28022;SDS011;67403;50.104;8.758;2023-08-31T07:38:26;8.45;;;4.53;;
28022;SDS011;67403;50.104;8.758;2023-08-31T07:40:53;8.90;;;4.57;;
28022;SDS011;67403;50.104;8.758;2023-08-31T07:43:22;9.43;;;4.15;;
28022;SDS011;67403;50.104;8.758;2023-08-31T07:45:49;7.20;;;4.30;;
28022;SDS011;67403;50.104;8.758;2023-08-31T07:48:17;11.52;;;4.28;;
28022;SDS011;67403;50.104;8.758;2023-08-31T07:50:44;6.75;;;4.07;;
28022;SDS011;67403;50.104;8.758;2023-08-31T07:53:11;5.90;;;4.25;;
28022;SDS011;67403;50.104;8.758;2023-08-31T07:55:39;7.95;;;4.20;;
28022;SDS011;67403;50.104;8.758;2023-08-31T07:58:06;7.38;;;3.90;;
28022;SDS011;67403;50.104;8.758;2023-08-31T08:00:35;8.00;;;3.58;;
28022;SDS011;67403;50.104;8.758;2023-08-31T08:03:03;8.35;;;3.90;;
28022;SDS011;67403;50.104;8.758;2023-08-31T08:05:30;6.80;;;3.38;;
28022;SDS011;67403;50.104;8.758;2023-08-31T08:07:57;5.63;;;2.90;;
28022;SDS011;67403;50.104;8.758;2023-08-31T08:10:25;4.95;;;3.22;;
28022;SDS011;67403;50.104;8.758;2023-08-31T08:12:52;6.35;;;3.50;;
28022;SDS011;67403;50.104;8.758;2023-08-31T08:15:21;6.10;;;3.80;;
28022;SDS011;67403;50.104;8.758;2023-08-31T08:17:50;4.70;;;2.97;;
28022;SDS011;67403;50.104;8.758;2023-08-31T08:22:46;6.47;;;3.05;;
28022;SDS011;67403;50.104;8.758;2023-08-31T08:25:17;5.05;;;3.20;;
28022;SDS011;67403;50.104;8.758;2023-08-31T08:27:45;3.88;;;2.72;;
28022;SDS011;67403;50.104;8.758;2023-08-31T08:30:12;7.00;;;3.08;;
28022;SDS011;67403;50.104;8.758;2023-08-31T08:32:40;9.52;;;3.15;;
28022;SDS011;67403;50.104;8.758;2023-08-31T08:35:09;3.92;;;2.67;;
28022;SDS011;67403;50.104;8.758;2023-08-31T08:37:37;6.15;;;2.92;;
28022;SDS011;67403;50.104;8.758;2023-08-31T08:40:05;6.85;;;2.50;;
28022;SDS011;67403;50.104;8.758;2023-08-31T08:42:32;5.07;;;3.03;;
28022;SDS011;67403;50.104;8.758;2023-08-31T08:45:04;4.05;;;2.50;;
28022;SDS011;67403;50.104;8.758;2023-08-31T08:47:33;6.72;;;3.00;;
28022;SDS011;67403;50.104;8.758;2023-08-31T08:50:01;6.20;;;2.80;;
28022;SDS011;67403;50.104;8.758;2023-08-31T08:52:30;7.40;;;2.83;;
28022;SDS011;67403;50.104;8.758;2023-08-31T08:54:58;4.95;;;2.33;;
28022;SDS011;67403;50.104;8.758;2023-08-31T08:57:26;6.07;;;2.25;;
28022;SDS011;67403;50.104;8.758;2023-08-31T08:59:53;8.05;;;2.60;;
28022;SDS011;67403;50.104;8.758;2023-08-31T09:02:21;3.88;;;2.53;;
28022;SDS011;67403;50.104;8.758;2023-08-31T09:04:48;4.13;;;2.30;;
28022;SDS011;67403;50.104;8.758;2023-08-31T09:07:18;4.95;;;2.53;;
28022;SDS011;67403;50.104;8.758;2023-08-31T09:09:50;6.70;;;2.17;;
28022;SDS011;67403;50.104;8.758;2023-08-31T09:12:18;5.63;;;2.55;;
28022;SDS011;67403;50.104;8.758;2023-08-31T09:14:56;4.43;;;2.40;;
28022;SDS011;67403;50.104;8.758;2023-08-31T09:17:23;3.80;;;2.38;;
28022;SDS011;67403;50.104;8.758;2023-08-31T09:20:01;4.68;;;2.50;;
28022;SDS011;67403;50.104;8.758;2023-08-31T09:22:28;3.95;;;2.15;;
28022;SDS011;67403;50.104;8.758;2023-08-31T09:24:57;5.25;;;2.28;;
28022;SDS011;67403;50.104;8.758;2023-08-31T09:27:24;5.90;;;2.40;;
28022;SDS011;67403;50.104;8.758;2023-08-31T09:29:54;6.50;;;2.15;;
28022;SDS011;67403;50.104;8.758;2023-08-31T09:32:21;5.25;;;2.65;;
28022;SDS011;67403;50.104;8.758;2023-08-31T09:34:49;6.43;;;2.60;;
28022;SDS011;67403;50.104;8.758;2023-08-31T09:37:16;4.07;;;2.35;;
28022;SDS011;67403;50.104;8.758;2023-08-31T09:39:43;7.63;;;2.30;;
28022;SDS011;67403;50.104;8.758;2023-08-31T09:42:12;4.75;;;2.55;;
28022;SDS011;67403;50.104;8.758;2023-08-31T09:44:40;4.68;;;2.30;;
28022;SDS011;67403;50.104;8.758;2023-08-31T09:47:07;7.10;;;2.65;;
28022;SDS011;67403;50.104;8.758;2023-08-31T09:49:36;4.55;;;2.53;;
28022;SDS011;67403;50.104;8.758;2023-08-31T09:52:04;3.67;;;2.25;;
28022;SDS011;67403;50.104;8.758;2023-08-31T09:54:33;2.93;;;2.07;;
28022;SDS011;67403;50.104;8.758;2023-08-31T09:57:01;3.33;;;2.03;;
28022;SDS011;67403;50.104;8.758;2023-08-31T09:59:30;3.95;;;2.08;;
28022;SDS011;67403;50.104;8.758;2023-08-31T10:04:27;7.60;;;2.10;;
28022;SDS011;67403;50.104;8.758;2023-08-31T10:06:57;8.55;;;2.00;;
28022;SDS011;67403;50.104;8.758;2023-08-31T10:09:25;5.03;;;2.45;;
28022;SDS011;67403;50.104;8.758;2023-08-31T10:11:52;4.13;;;1.90;;
28022;SDS011;67403;50.104;8.758;2023-08-31T10:14:20;5.88;;;2.80;;
28022;SDS011;67403;50.104;8.758;2023-08-31T10:16:50;3.00;;;1.73;;
28022;SDS011;67403;50.104;8.758;2023-08-31T10:19:18;5.15;;;2.17;;
28022;SDS011;67403;50.104;8.758;2023-08-31T10:21:45;4.20;;;1.83;;
28022;SDS011;67403;50.104;8.758;2023-08-31T10:24:13;5.90;;;2.65;;
28022;SDS011;67403;50.104;8.758;2023-08-31T10:26:40;3.30;;;2.00;;
28022;SDS011;67403;50.104;8.758;2023-08-31T10:29:08;5.93;;;2.55;;
28022;SDS011;67403;50.104;8.758;2023-08-31T10:31:54;5.10;;;1.98;;
28022;SDS011;67403;50.104;8.758;2023-08-31T10:34:33;4.40;;;1.77;;
28022;SDS011;67403;50.104;8.758;2023-08-31T10:37:01;3.72;;;1.85;;
28022;SDS011;67403;50.104;8.758;2023-08-31T10:39:37;4.40;;;1.75;;
28022;SDS011;67403;50.104;8.758;2023-08-31T10:42:04;6.45;;;2.13;;
28022;SDS011;67403;50.104;8.758;2023-08-31T10:44:32;4.82;;;1.95;;
28022;SDS011;67403;50.104;8.758;2023-08-31T10:47:03;7.13;;;2.13;;
28022;SDS011;67403;50.104;8.758;2023-08-31T10:49:30;3.80;;;1.73;;
28022;SDS011;67403;50.104;8.758;2023-08-31T10:52:14;4.03;;;1.98;;
28022;SDS011;67403;50.104;8.758;2023-08-31T10:54:42;3.90;;;1.90;;
28022;SDS011;67403;50.104;8.758;2023-08-31T10:57:09;3.65;;;1.55;;
28022;SDS011;67403;50.104;8.758;2023-08-31T10:59:42;5.22;;;1.85;;
28022;SDS011;67403;50.104;8.758;2023-08-31T11:02:10;3.38;;;1.67;;
28022;SDS011;67403;50.104;8.758;2023-08-31T11:04:53;3.35;;;1.77;;
28022;SDS011;67403;50.104;8.758;2023-08-31T11:07:23;2.83;;;2.05;;
28022;SDS011;67403;50.104;8.758;2023-08-31T11:12:21;3.13;;;1.70;;
28022;SDS011;67403;50.104;8.758;2023-08-31T11:14:50;3.22;;;2.00;;
28022;SDS011;67403;50.104;8.758;2023-08-31T11:17:18;2.65;;;1.63;;
28022;SDS011;67403;50.104;8.758;2023-08-31T11:19:47;5.30;;;1.92;;
28022;SDS011;67403;50.104;8.758;2023-08-31T11:22:14;4.20;;;1.95;;
28022;SDS011;67403;50.104;8.758;2023-08-31T11:24:42;6.13;;;2.22;;
28022;SDS011;67403;50.104;8.758;2023-08-31T11:27:09;3.78;;;1.83;;
28022;SDS011;67403;50.104;8.758;2023-08-31T11:29:37;3.88;;;1.88;;
28022;SDS011;67403;50.104;8.758;2023-08-31T11:32:05;3.78;;;2.13;;
28022;SDS011;67403;50.104;8.758;2023-08-31T11:34:34;4.45;;;1.85;;
28022;SDS011;67403;50.104;8.758;2023-08-31T11:37:02;4.80;;;1.70;;
28022;SDS011;67403;50.104;8.758;2023-08-31T11:39:30;4.60;;;1.95;;
28022;SDS011;67403;50.104;8.758;2023-08-31T11:41:57;3.30;;;1.95;;
28022;SDS011;67403;50.104;8.758;2023-08-31T11:44:24;2.70;;;1.60;;
28022;SDS011;67403;50.104;8.758;2023-08-31T11:46:52;6.38;;;1.50;;
28022;SDS011;67403;50.104;8.758;2023-08-31T11:49:19;4.50;;;2.08;;
28022;SDS011;67403;50.104;8.758;2023-08-31T11:51:48;7.20;;;2.20;;
28022;SDS011;67403;50.104;8.758;2023-08-31T11:54:17;3.58;;;1.92;;
28022;SDS011;67403;50.104;8.758;2023-08-31T11:56:44;2.60;;;1.58;;
28022;SDS011;67403;50.104;8.758;2023-08-31T11:59:15;3.17;;;1.90;;
28022;SDS011;67403;50.104;8.758;2023-08-31T12:01:42;4.67;;;1.90;;
28022;SDS011;67403;50.104;8.758;2023-08-31T12:04:11;2.55;;;1.65;;
28022;SDS011;67403;50.104;8.758;2023-08-31T12:06:38;3.38;;;1.88;;
28022;SDS011;67403;50.104;8.758;2023-08-31T12:09:08;3.35;;;1.40;;
28022;SDS011;67403;50.104;8.758;2023-08-31T12:11:35;3.90;;;1.70;;
28022;SDS011;67403;50.104;8.758;2023-08-31T12:14:18;2.65;;;1.55;;
28022;SDS011;67403;50.104;8.758;2023-08-31T12:16:45;3.70;;;1.63;;
28022;SDS011;67403;50.104;8.758;2023-08-31T12:19:13;4.20;;;2.00;;
28022;SDS011;67403;50.104;8.758;2023-08-31T12:21:41;3.03;;;1.83;;
28022;SDS011;67403;50.104;8.758;2023-08-31T12:24:10;2.45;;;1.60;;
28022;SDS011;67403;50.104;8.758;2023-08-31T12:26:37;5.45;;;2.05;;
28022;SDS011;67403;50.104;8.758;2023-08-31T12:29:05;3.85;;;1.90;;
28022;SDS011;67403;50.104;8.758;2023-08-31T12:31:32;3.38;;;1.85;;
28022;SDS011;67403;50.104;8.758;2023-08-31T12:34:00;3.63;;;1.92;;
28022;SDS011;67403;50.104;8.758;2023-08-31T12:36:31;2.95;;;1.92;;
28022;SDS011;67403;50.104;8.758;2023-08-31T12:38:58;5.35;;;1.90;;
28022;SDS011;67403;50.104;8.758;2023-08-31T12:41:28;8.13;;;3.35;;
28022;SDS011;67403;50.104;8.758;2023-08-31T12:43:55;2.95;;;1.80;;
28022;SDS011;67403;50.104;8.758;2023-08-31T12:46:23;5.28;;;2.80;;
28022;SDS011;67403;50.104;8.758;2023-08-31T12:48:50;4.25;;;1.50;;
28022;SDS011;67403;50.104;8.758;2023-08-31T12:51:18;3.65;;;1.60;;
28022;SDS011;67403;50.104;8.758;2023-08-31T12:53:45;4.00;;;1.90;;
28022;SDS011;67403;50.104;8.758;2023-08-31T12:56:13;4.18;;;2.05;;
28022;SDS011;67403;50.104;8.758;2023-08-31T12:58:48;4.82;;;1.85;;
28022;SDS011;67403;50.104;8.758;2023-08-31T13:01:15;2.35;;;1.83;;
28022;SDS011;67403;50.104;8.758;2023-08-31T13:03:43;3.28;;;1.67;;
28022;SDS011;67403;50.104;8.758;2023-08-31T13:06:10;3.13;;;1.75;;
28022;SDS011;67403;50.104;8.758;2023-08-31T13:08:38;3.80;;;1.60;;
28022;SDS011;67403;50.104;8.758;2023-08-31T13:11:05;5.15;;;1.90;;
28022;SDS011;67403;50.104;8.758;2023-08-31T13:13:33;4.45;;;1.98;;
28022;SDS011;67403;50.104;8.758;2023-08-31T13:16:02;2.65;;;1.55;;
28022;SDS011;67403;50.104;8.758;2023-08-31T13:20:57;4.70;;;1.75;;
28022;SDS011;67403;50.104;8.758;2023-08-31T13:23:25;3.45;;;1.77;;
28022;SDS011;67403;50.104;8.758;2023-08-31T13:25:52;3.08;;;1.50;;
28022;SDS011;67403;50.104;8.758;2023-08-31T13:28:21;6.50;;;1.95;;
28022;SDS011;67403;50.104;8.758;2023-08-31T13:30:49;2.25;;;1.50;;
28022;SDS011;67403;50.104;8.758;2023-08-31T13:33:18;2.70;;;1.60;;
28022;SDS011;67403;50.104;8.758;2023-08-31T13:35:46;4.00;;;1.60;;
28022;SDS011;67403;50.104;8.758;2023-08-31T13:38:13;2.88;;;1.40;;
28022;SDS011;67403;50.104;8.758;2023-08-31T13:40:40;4.80;;;1.80;;
28022;SDS011;67403;50.104;8.758;2023-08-31T13:43:08;2.72;;;1.55;;
28022;SDS011;67403;50.104;8.758;2023-08-31T13:45:38;2.17;;;1.60;;
28022;SDS011;67403;50.104;8.758;2023-08-31T13:48:06;2.28;;;1.67;;
28022;SDS011;67403;50.104;8.758;2023-08-31T13:50:35;2.95;;;1.50;;
28022;SDS011;67403;50.104;8.758;2023-08-31T13:53:02;1.80;;;1.50;;
28022;SDS011;67403;50.104;8.758;2023-08-31T13:55:29;4.88;;;1.70;;
28022;SDS011;67403;50.104;8.758;2023-08-31T13:58:03;2.80;;;1.40;;
28022;SDS011;67403;50.104;8.758;2023-08-31T14:00:31;3.47;;;1.55;;
28022;SDS011;67403;50.104;8.758;2023-08-31T14:02:58;1.83;;;1.40;;
28022;SDS011;67403;50.104;8.758;2023-08-31T14:05:28;2.78;;;1.73;;
28022;SDS011;67403;50.104;8.758;2023-08-31T14:07:59;2.78;;;1.73;;
28022;SDS011;67403;50.104;8.758;2023-08-31T14:10:30;3.90;;;1.85;;
28022;SDS011;67403;50.104;8.758;2023-08-31T14:12:58;1.67;;;1.50;;
28022;SDS011;67403;50.104;8.758;2023-08-31T14:15:25;4.15;;;1.70;;
28022;SDS011;67403;50.104;8.758;2023-08-31T14:17:53;4.45;;;1.42;;
28022;SDS011;67403;50.104;8.758;2023-08-31T14:20:21;5.18;;;2.53;;
28022;SDS011;67403;50.104;8.758;2023-08-31T14:22:48;8.60;;;5.05;;
28022;SDS011;67403;50.104;8.758;2023-08-31T14:25:17;3.72;;;2.20;;
28022;SDS011;67403;50.104;8.758;2023-08-31T14:27:46;3.37;;;1.60;;
28022;SDS011;67403;50.104;8.758;2023-08-31T14:30:14;2.00;;;1.50;;
28022;SDS011;67403;50.104;8.758;2023-08-31T14:32:41;2.40;;;1.58;;
28022;SDS011;67403;50.104;8.758;2023-08-31T14:35:08;2.53;;;1.80;;
28022;SDS011;67403;50.104;8.758;2023-08-31T14:37:36;2.63;;;1.80;;
28022;SDS011;67403;50.104;8.758;2023-08-31T14:40:03;4.55;;;2.00;;
28022;SDS011;67403;50.104;8.758;2023-08-31T14:42:33;2.67;;;1.75;;
28022;SDS011;67403;50.104;8.758;2023-08-31T14:45:01;3.35;;;1.70;;
28022;SDS011;67403;50.104;8.758;2023-08-31T14:47:28;3.20;;;1.85;;
28022;SDS011;67403;50.104;8.758;2023-08-31T14:49:55;2.65;;;1.75;;
28022;SDS011;67403;50.104;8.758;2023-08-31T14:52:23;2.65;;;1.52;;
28022;SDS011;67403;50.104;8.758;2023-08-31T14:54:50;3.60;;;1.85;;
28022;SDS011;67403;50.104;8.758;2023-08-31T14:57:17;3.45;;;1.77;;
28022;SDS011;67403;50.104;8.758;2023-08-31T14:59:46;8.68;;;2.60;;
28022;SDS011;67403;50.104;8.758;2023-08-31T15:02:16;4.30;;;1.45;;